sensor_id;sensor_type;location;lat;lon;timestamp;P1;durP1;ratioP1;P2;durP2;ratioP2
56130;SDS011;42000;44.774;20.506;2022-09-03T21:20:34;24.35;;;13.27;;
56130;SDS011;42000;44.774;20.506;2022-09-03T21:23:17;17.13;;;12.95;;
56130;SDS011;42000;44.774;20.506;2022-09-03T21:25:47;18.38;;;14.32;;
56130;SDS011;42000;44.774;20.506;2022-09-03T21:28:23;20.90;;;13.68;;
56130;SDS011;42000;44.774;20.506;2022-09-03T21:30:53;19.48;;;13.35;;
56130;SDS011;42000;44.774;20.506;2022-09-03T21:33:28;15.75;;;13.80;;
56130;SDS011;42000;44.774;20.506;2022-09-03T21:38:30;21.52;;;16.45;;
56130;SDS011;42000;44.774;20.506;2022-09-03T21:41:10;19.83;;;16.27;;
56130;SDS011;42000;44.774;20.506;2022-09-03T21:46:24;22.88;;;15.57;;
56130;SDS011;42000;44.774;20.506;2022-09-03T21:54:11;21.73;;;16.17;;
56130;SDS011;42000;44.774;20.506;2022-09-03T22:04:20;27.20;;;16.63;;
56130;SDS011;42000;44.774;20.506;2022-09-03T22:09:17;23.63;;;17.40;;
56130;SDS011;42000;44.774;20.506;2022-09-03T22:11:49;22.77;;;17.48;;
56130;SDS011;42000;44.774;20.506;2022-09-03T22:14:18;24.33;;;18.30;;
56130;SDS011;42000;44.774;20.506;2022-09-03T22:16:53;24.83;;;18.25;;
56130;SDS011;42000;44.774;20.506;2022-09-03T22:19:20;23.98;;;18.83;;
56130;SDS011;42000;44.774;20.506;2022-09-03T22:21:51;29.48;;;21.63;;
56130;SDS011;42000;44.774;20.506;2022-09-03T22:31:51;29.30;;;22.70;;
56130;SDS011;42000;44.774;20.506;2022-09-03T22:34:23;30.58;;;23.02;;
56130;SDS011;42000;44.774;20.506;2022-09-03T22:36:52;30.38;;;25.85;;
56130;SDS011;42000;44.774;20.506;2022-09-03T22:39:39;30.83;;;24.70;;
56130;SDS011;42000;44.774;20.506;2022-09-03T22:44:47;30.02;;;24.30;;
56130;SDS011;42000;44.774;20.506;2022-09-03T22:47:33;39.42;;;25.67;;
56130;SDS011;42000;44.774;20.506;2022-09-03T22:52:41;32.97;;;25.15;;
56130;SDS011;42000;44.774;20.506;2022-09-03T22:55:18;33.38;;;24.42;;
56130;SDS011;42000;44.774;20.506;2022-09-03T22:57:57;30.48;;;24.90;;
56130;SDS011;42000;44.774;20.506;2022-09-03T23:00:24;33.85;;;25.33;;
56130;SDS011;42000;44.774;20.506;2022-09-03T23:03:04;33.47;;;25.63;;
56130;SDS011;42000;44.774;20.506;2022-09-03T23:05:35;33.38;;;26.77;;
56130;SDS011;42000;44.774;20.506;2022-09-03T23:13:19;33.85;;;26.83;;
56130;SDS011;42000;44.774;20.506;2022-09-03T23:15:48;31.35;;;23.65;;
56130;SDS011;42000;44.774;20.506;2022-09-03T23:18:21;30.05;;;24.75;;
56130;SDS011;42000;44.774;20.506;2022-09-03T23:23:20;32.17;;;25.63;;
56130;SDS011;42000;44.774;20.506;2022-09-03T23:25:51;36.10;;;25.95;;
56130;SDS011;42000;44.774;20.506;2022-09-03T23:28:21;34.90;;;27.05;;
56130;SDS011;42000;44.774;20.506;2022-09-03T23:30:49;32.85;;;26.35;;
56130;SDS011;42000;44.774;20.506;2022-09-03T23:33:15;34.80;;;27.90;;
56130;SDS011;42000;44.774;20.506;2022-09-03T23:35:53;33.08;;;26.88;;
56130;SDS011;42000;44.774;20.506;2022-09-03T23:38:36;36.60;;;27.60;;
56130;SDS011;42000;44.774;20.506;2022-09-03T23:41:07;35.50;;;27.35;;
56130;SDS011;42000;44.774;20.506;2022-09-03T23:48:59;37.28;;;28.27;;
56130;SDS011;42000;44.774;20.506;2022-09-03T23:59:14;33.15;;;27.55;;
